sensor_id;sensor_type;location;lat;lon;timestamp;temperature;humidity
54082;DHT22;39986;50.770;0.266;2023-05-27T00:00:44;11.80;99.90
54082;DHT22;39986;50.770;0.266;2023-05-27T00:03:10;11.80;99.90
54082;DHT22;39986;50.770;0.266;2023-05-27T00:05:35;11.90;99.90
54082;DHT22;39986;50.770;0.266;2023-05-27T00:08:01;12.00;99.90
54082;DHT22;39986;50.770;0.266;2023-05-27T00:10:26;11.90;99.90
54082;DHT22;39986;50.770;0.266;2023-05-27T00:12:52;11.90;99.90
54082;DHT22;39986;50.770;0.266;2023-05-27T00:15:17;11.90;99.90
54082;DHT22;39986;50.770;0.266;2023-05-27T00:17:43;11.80;99.90
54082;DHT22;39986;50.770;0.266;2023-05-27T00:20:09;11.80;99.90
54082;DHT22;39986;50.770;0.266;2023-05-27T00:22:35;11.80;99.90
54082;DHT22;39986;50.770;0.266;2023-05-27T00:25:02;11.70;99.90
54082;DHT22;39986;50.770;0.266;2023-05-27T00:27:27;11.80;99.90
54082;DHT22;39986;50.770;0.266;2023-05-27T00:29:53;11.80;99.90
54082;DHT22;39986;50.770;0.266;2023-05-27T00:32:18;11.80;99.90
54082;DHT22;39986;50.770;0.266;2023-05-27T00:34:44;11.80;99.90
54082;DHT22;39986;50.770;0.266;2023-05-27T00:37:10;11.80;99.90
54082;DHT22;39986;50.770;0.266;2023-05-27T00:39:35;11.80;99.90
54082;DHT22;39986;50.770;0.266;2023-05-27T00:42:01;11.80;99.90
54082;DHT22;39986;50.770;0.266;2023-05-27T00:44:27;11.80;99.90
54082;DHT22;39986;50.770;0.266;2023-05-27T00:46:53;11.70;99.90
54082;DHT22;39986;50.770;0.266;2023-05-27T00:49:18;11.70;99.90
54082;DHT22;39986;50.770;0.266;2023-05-27T00:51:44;11.70;99.90
54082;DHT22;39986;50.770;0.266;2023-05-27T00:54:10;11.80;99.90
54082;DHT22;39986;50.770;0.266;2023-05-27T00:56:36;11.70;99.90
54082;DHT22;39986;50.770;0.266;2023-05-27T00:59:02;11.60;99.90
54082;DHT22;39986;50.770;0.266;2023-05-27T01:01:27;11.60;99.90
54082;DHT22;39986;50.770;0.266;2023-05-27T01:03:54;11.60;99.90
54082;DHT22;39986;50.770;0.266;2023-05-27T01:06:24;11.70;99.90
54082;DHT22;39986;50.770;0.266;2023-05-27T01:11:28;11.60;99.90
54082;DHT22;39986;50.770;0.266;2023-05-27T01:13:59;11.60;99.90
54082;DHT22;39986;50.770;0.266;2023-05-27T01:16:26;11.60;99.90
54082;DHT22;39986;50.770;0.266;2023-05-27T01:18:53;11.60;99.90
54082;DHT22;39986;50.770;0.266;2023-05-27T01:21:20;11.60;99.90
54082;DHT22;39986;50.770;0.266;2023-05-27T01:23:47;11.60;99.90
54082;DHT22;39986;50.770;0.266;2023-05-27T01:26:13;11.60;99.90
54082;DHT22;39986;50.770;0.266;2023-05-27T01:28:38;11.60;99.90
54082;DHT22;39986;50.770;0.266;2023-05-27T01:31:26;11.50;99.90
54082;DHT22;39986;50.770;0.266;2023-05-27T01:34:05;11.50;99.90
54082;DHT22;39986;50.770;0.266;2023-05-27T01:36:33;11.50;99.90
54082;DHT22;39986;50.770;0.266;2023-05-27T01:39:00;11.50;99.90
54082;DHT22;39986;50.770;0.266;2023-05-27T01:41:27;11.50;99.90
54082;DHT22;39986;50.770;0.266;2023-05-27T01:43:53;11.50;99.90
54082;DHT22;39986;50.770;0.266;2023-05-27T01:46:19;11.50;99.90
54082;DHT22;39986;50.770;0.266;2023-05-27T01:48:44;11.50;99.90
54082;DHT22;39986;50.770;0.266;2023-05-27T01:51:10;11.50;99.90
54082;DHT22;39986;50.770;0.266;2023-05-27T01:53:35;11.50;99.90
54082;DHT22;39986;50.770;0.266;2023-05-27T01:56:01;11.60;99.90
54082;DHT22;39986;50.770;0.266;2023-05-27T01:58:26;11.60;99.90
54082;DHT22;39986;50.770;0.266;2023-05-27T02:00:52;11.60;99.90
54082;DHT22;39986;50.770;0.266;2023-05-27T02:03:18;11.60;99.90
54082;DHT22;39986;50.770;0.266;2023-05-27T02:05:43;11.60;99.90
54082;DHT22;39986;50.770;0.266;2023-05-27T02:08:10;11.60;99.90
54082;DHT22;39986;50.770;0.266;2023-05-27T02:10:35;11.50;99.90
54082;DHT22;39986;50.770;0.266;2023-05-27T02:13:01;11.50;99.90
54082;DHT22;39986;50.770;0.266;2023-05-27T02:15:26;11.50;99.90
54082;DHT22;39986;50.770;0.266;2023-05-27T02:17:52;11.50;99.90
54082;DHT22;39986;50.770;0.266;2023-05-27T02:20:23;11.50;99.90
54082;DHT22;39986;50.770;0.266;2023-05-27T02:22:51;11.60;99.90
54082;DHT22;39986;50.770;0.266;2023-05-27T02:25:17;11.70;99.90
54082;DHT22;39986;50.770;0.266;2023-05-27T02:27:42;11.70;99.90
54082;DHT22;39986;50.770;0.266;2023-05-27T02:30:12;11.70;99.90
54082;DHT22;39986;50.770;0.266;2023-05-27T02:32:38;11.70;99.90
54082;DHT22;39986;50.770;0.266;2023-05-27T02:35:04;11.60;99.90
54082;DHT22;39986;50.770;0.266;2023-05-27T02:37:29;11.60;99.90
54082;DHT22;39986;50.770;0.266;2023-05-27T02:39:55;11.60;99.90
54082;DHT22;39986;50.770;0.266;2023-05-27T02:42:21;11.60;99.90
54082;DHT22;39986;50.770;0.266;2023-05-27T02:44:47;11.50;99.90
54082;DHT22;39986;50.770;0.266;2023-05-27T02:47:12;11.50;99.90
54082;DHT22;39986;50.770;0.266;2023-05-27T02:49:38;11.30;99.90
54082;DHT22;39986;50.770;0.266;2023-05-27T02:52:03;11.40;99.90
54082;DHT22;39986;50.770;0.266;2023-05-27T02:54:29;11.30;99.90
54082;DHT22;39986;50.770;0.266;2023-05-27T02:56:55;11.30;99.90
54082;DHT22;39986;50.770;0.266;2023-05-27T02:59:20;11.50;99.90
54082;DHT22;39986;50.770;0.266;2023-05-27T03:01:46;11.30;99.90
54082;DHT22;39986;50.770;0.266;2023-05-27T03:04:11;11.30;99.90
54082;DHT22;39986;50.770;0.266;2023-05-27T03:06:37;11.20;99.90
54082;DHT22;39986;50.770;0.266;2023-05-27T03:09:03;11.20;99.90
54082;DHT22;39986;50.770;0.266;2023-05-27T03:11:28;11.20;99.90
54082;DHT22;39986;50.770;0.266;2023-05-27T03:13:54;11.10;99.90
54082;DHT22;39986;50.770;0.266;2023-05-27T03:16:20;11.10;99.90
54082;DHT22;39986;50.770;0.266;2023-05-27T03:18:45;10.90;99.90
54082;DHT22;39986;50.770;0.266;2023-05-27T03:21:11;11.00;99.90
54082;DHT22;39986;50.770;0.266;2023-05-27T03:23:37;11.00;99.90
54082;DHT22;39986;50.770;0.266;2023-05-27T03:26:02;11.00;99.90
54082;DHT22;39986;50.770;0.266;2023-05-27T03:28:28;10.90;99.90
54082;DHT22;39986;50.770;0.266;2023-05-27T03:30:53;10.90;99.90
54082;DHT22;39986;50.770;0.266;2023-05-27T03:33:22;10.90;99.90
54082;DHT22;39986;50.770;0.266;2023-05-27T03:35:47;10.90;99.90
54082;DHT22;39986;50.770;0.266;2023-05-27T03:38:13;11.10;99.90
54082;DHT22;39986;50.770;0.266;2023-05-27T03:40:38;10.70;99.90
54082;DHT22;39986;50.770;0.266;2023-05-27T03:43:04;10.90;99.90
54082;DHT22;39986;50.770;0.266;2023-05-27T03:45:29;10.80;99.90
54082;DHT22;39986;50.770;0.266;2023-05-27T03:47:55;10.80;99.90
54082;DHT22;39986;50.770;0.266;2023-05-27T03:50:20;10.80;99.90
54082;DHT22;39986;50.770;0.266;2023-05-27T03:52:46;10.80;99.90
54082;DHT22;39986;50.770;0.266;2023-05-27T03:55:12;10.80;99.90
54082;DHT22;39986;50.770;0.266;2023-05-27T03:57:38;10.80;99.90
54082;DHT22;39986;50.770;0.266;2023-05-27T04:00:04;10.80;99.90
54082;DHT22;39986;50.770;0.266;2023-05-27T04:02:37;10.80;99.90
54082;DHT22;39986;50.770;0.266;2023-05-27T04:05:03;10.80;99.90
54082;DHT22;39986;50.770;0.266;2023-05-27T04:07:28;10.80;99.90
54082;DHT22;39986;50.770;0.266;2023-05-27T04:09:54;10.80;99.90
54082;DHT22;39986;50.770;0.266;2023-05-27T04:12:20;10.80;99.90
54082;DHT22;39986;50.770;0.266;2023-05-27T04:14:46;10.80;99.90
54082;DHT22;39986;50.770;0.266;2023-05-27T04:17:11;10.80;99.90
54082;DHT22;39986;50.770;0.266;2023-05-27T04:19:38;10.80;99.90
54082;DHT22;39986;50.770;0.266;2023-05-27T04:22:04;10.80;99.90
54082;DHT22;39986;50.770;0.266;2023-05-27T04:24:30;10.70;99.90
54082;DHT22;39986;50.770;0.266;2023-05-27T04:26:55;10.70;99.90
54082;DHT22;39986;50.770;0.266;2023-05-27T04:29:21;10.80;99.90
54082;DHT22;39986;50.770;0.266;2023-05-27T04:31:48;10.80;99.90
54082;DHT22;39986;50.770;0.266;2023-05-27T04:34:13;10.90;99.90
54082;DHT22;39986;50.770;0.266;2023-05-27T04:36:39;10.90;99.90
54082;DHT22;39986;50.770;0.266;2023-05-27T04:39:04;10.90;99.90
54082;DHT22;39986;50.770;0.266;2023-05-27T04:41:30;11.00;99.90
54082;DHT22;39986;50.770;0.266;2023-05-27T04:43:58;11.00;99.90
54082;DHT22;39986;50.770;0.266;2023-05-27T04:46:26;11.00;99.90
54082;DHT22;39986;50.770;0.266;2023-05-27T04:48:54;11.20;99.90
54082;DHT22;39986;50.770;0.266;2023-05-27T04:51:21;11.10;99.90
54082;DHT22;39986;50.770;0.266;2023-05-27T04:53:46;11.20;99.90
54082;DHT22;39986;50.770;0.266;2023-05-27T04:56:15;11.30;99.90
54082;DHT22;39986;50.770;0.266;2023-05-27T04:58:45;11.30;99.90
54082;DHT22;39986;50.770;0.266;2023-05-27T05:01:14;11.40;99.90
54082;DHT22;39986;50.770;0.266;2023-05-27T05:03:45;11.50;99.90
54082;DHT22;39986;50.770;0.266;2023-05-27T05:06:29;11.50;99.90
54082;DHT22;39986;50.770;0.266;2023-05-27T05:08:55;11.70;99.90
54082;DHT22;39986;50.770;0.266;2023-05-27T05:11:20;11.80;99.90
54082;DHT22;39986;50.770;0.266;2023-05-27T05:13:46;12.40;99.90
54082;DHT22;39986;50.770;0.266;2023-05-27T05:16:12;13.20;99.90
54082;DHT22;39986;50.770;0.266;2023-05-27T05:18:37;13.30;99.90
54082;DHT22;39986;50.770;0.266;2023-05-27T05:21:03;13.30;99.90
54082;DHT22;39986;50.770;0.266;2023-05-27T05:23:29;13.90;99.90
54082;DHT22;39986;50.770;0.266;2023-05-27T05:25:55;15.20;99.90
54082;DHT22;39986;50.770;0.266;2023-05-27T05:28:23;15.70;99.90
54082;DHT22;39986;50.770;0.266;2023-05-27T05:30:49;15.60;99.90
54082;DHT22;39986;50.770;0.266;2023-05-27T05:33:15;15.10;99.90
54082;DHT22;39986;50.770;0.266;2023-05-27T05:35:40;14.60;99.90
54082;DHT22;39986;50.770;0.266;2023-05-27T05:38:06;14.30;99.90
54082;DHT22;39986;50.770;0.266;2023-05-27T05:40:32;14.00;99.90
54082;DHT22;39986;50.770;0.266;2023-05-27T05:42:57;13.80;99.90
54082;DHT22;39986;50.770;0.266;2023-05-27T05:45:23;13.70;99.90
54082;DHT22;39986;50.770;0.266;2023-05-27T05:47:49;13.70;99.90
54082;DHT22;39986;50.770;0.266;2023-05-27T05:50:15;13.60;99.90
54082;DHT22;39986;50.770;0.266;2023-05-27T05:52:40;13.60;99.90
54082;DHT22;39986;50.770;0.266;2023-05-27T05:55:06;13.70;99.90
54082;DHT22;39986;50.770;0.266;2023-05-27T05:57:32;13.70;99.90
54082;DHT22;39986;50.770;0.266;2023-05-27T05:59:57;13.80;99.90
54082;DHT22;39986;50.770;0.266;2023-05-27T06:02:23;13.70;99.90
54082;DHT22;39986;50.770;0.266;2023-05-27T06:04:50;13.80;99.90
54082;DHT22;39986;50.770;0.266;2023-05-27T06:07:16;13.80;99.90
54082;DHT22;39986;50.770;0.266;2023-05-27T06:09:41;13.80;99.90
54082;DHT22;39986;50.770;0.266;2023-05-27T06:12:07;13.90;99.90
54082;DHT22;39986;50.770;0.266;2023-05-27T06:14:32;13.90;99.90
54082;DHT22;39986;50.770;0.266;2023-05-27T06:16:58;14.00;99.90
54082;DHT22;39986;50.770;0.266;2023-05-27T06:19:23;14.10;99.90
54082;DHT22;39986;50.770;0.266;2023-05-27T06:21:49;14.00;99.90
54082;DHT22;39986;50.770;0.266;2023-05-27T06:24:14;14.00;99.90
54082;DHT22;39986;50.770;0.266;2023-05-27T06:26:40;14.10;99.90
54082;DHT22;39986;50.770;0.266;2023-05-27T06:29:06;14.10;99.90
54082;DHT22;39986;50.770;0.266;2023-05-27T06:31:31;14.10;99.90
54082;DHT22;39986;50.770;0.266;2023-05-27T06:33:58;14.20;99.90
54082;DHT22;39986;50.770;0.266;2023-05-27T06:36:24;14.20;99.90
54082;DHT22;39986;50.770;0.266;2023-05-27T06:38:50;14.30;99.90
54082;DHT22;39986;50.770;0.266;2023-05-27T06:41:16;14.30;99.90
54082;DHT22;39986;50.770;0.266;2023-05-27T06:43:41;14.40;99.90
54082;DHT22;39986;50.770;0.266;2023-05-27T06:46:07;14.50;99.90
54082;DHT22;39986;50.770;0.266;2023-05-27T06:48:32;14.60;99.90
54082;DHT22;39986;50.770;0.266;2023-05-27T06:50:58;14.70;99.90
54082;DHT22;39986;50.770;0.266;2023-05-27T06:53:24;14.80;99.90
54082;DHT22;39986;50.770;0.266;2023-05-27T06:55:49;14.90;99.90
54082;DHT22;39986;50.770;0.266;2023-05-27T06:58:15;15.00;99.90
54082;DHT22;39986;50.770;0.266;2023-05-27T07:00:40;15.00;99.90
54082;DHT22;39986;50.770;0.266;2023-05-27T07:03:06;15.20;99.90
54082;DHT22;39986;50.770;0.266;2023-05-27T07:05:31;15.30;99.90
54082;DHT22;39986;50.770;0.266;2023-05-27T07:07:57;15.40;99.90
54082;DHT22;39986;50.770;0.266;2023-05-27T07:10:22;15.60;99.90
54082;DHT22;39986;50.770;0.266;2023-05-27T07:12:48;15.60;99.90
54082;DHT22;39986;50.770;0.266;2023-05-27T07:15:13;15.70;99.90
54082;DHT22;39986;50.770;0.266;2023-05-27T07:17:39;15.90;99.90
54082;DHT22;39986;50.770;0.266;2023-05-27T07:20:05;16.10;99.90
54082;DHT22;39986;50.770;0.266;2023-05-27T07:22:30;16.30;99.90
54082;DHT22;39986;50.770;0.266;2023-05-27T07:24:56;16.30;99.90
54082;DHT22;39986;50.770;0.266;2023-05-27T07:27:22;16.00;99.90
54082;DHT22;39986;50.770;0.266;2023-05-27T07:29:47;15.80;99.90
54082;DHT22;39986;50.770;0.266;2023-05-27T07:32:13;15.70;99.90
54082;DHT22;39986;50.770;0.266;2023-05-27T07:34:39;15.70;99.90
54082;DHT22;39986;50.770;0.266;2023-05-27T07:37:04;15.60;99.90
54082;DHT22;39986;50.770;0.266;2023-05-27T07:39:30;15.50;99.90
54082;DHT22;39986;50.770;0.266;2023-05-27T07:41:55;15.50;99.90
54082;DHT22;39986;50.770;0.266;2023-05-27T07:44:21;15.60;99.90
54082;DHT22;39986;50.770;0.266;2023-05-27T07:46:46;15.70;99.90
54082;DHT22;39986;50.770;0.266;2023-05-27T07:49:12;15.70;99.90
54082;DHT22;39986;50.770;0.266;2023-05-27T07:51:38;15.70;99.90
54082;DHT22;39986;50.770;0.266;2023-05-27T07:54:03;15.80;99.90
54082;DHT22;39986;50.770;0.266;2023-05-27T07:56:29;15.70;99.90
54082;DHT22;39986;50.770;0.266;2023-05-27T07:58:55;16.00;99.90
54082;DHT22;39986;50.770;0.266;2023-05-27T08:01:20;16.30;99.90
54082;DHT22;39986;50.770;0.266;2023-05-27T08:03:46;16.60;99.90
54082;DHT22;39986;50.770;0.266;2023-05-27T08:06:11;16.70;99.90
54082;DHT22;39986;50.770;0.266;2023-05-27T08:08:37;16.50;99.90
54082;DHT22;39986;50.770;0.266;2023-05-27T08:11:02;16.50;99.90
54082;DHT22;39986;50.770;0.266;2023-05-27T08:13:28;16.40;99.90
54082;DHT22;39986;50.770;0.266;2023-05-27T08:15:53;16.50;99.90
54082;DHT22;39986;50.770;0.266;2023-05-27T08:18:19;16.50;99.90
54082;DHT22;39986;50.770;0.266;2023-05-27T08:20:44;16.30;99.90
54082;DHT22;39986;50.770;0.266;2023-05-27T08:23:10;15.90;99.90
54082;DHT22;39986;50.770;0.266;2023-05-27T08:25:35;15.90;99.90
54082;DHT22;39986;50.770;0.266;2023-05-27T08:28:01;15.80;99.90
54082;DHT22;39986;50.770;0.266;2023-05-27T08:30:27;16.10;99.90
54082;DHT22;39986;50.770;0.266;2023-05-27T08:32:54;16.20;99.90
54082;DHT22;39986;50.770;0.266;2023-05-27T08:35:19;16.30;99.90
54082;DHT22;39986;50.770;0.266;2023-05-27T08:37:45;16.20;99.90
54082;DHT22;39986;50.770;0.266;2023-05-27T08:40:13;16.30;99.90
54082;DHT22;39986;50.770;0.266;2023-05-27T08:42:39;16.30;99.90
54082;DHT22;39986;50.770;0.266;2023-05-27T08:45:05;16.10;99.90
54082;DHT22;39986;50.770;0.266;2023-05-27T08:47:31;16.00;99.90
54082;DHT22;39986;50.770;0.266;2023-05-27T08:49:56;16.00;99.90
54082;DHT22;39986;50.770;0.266;2023-05-27T08:52:23;15.70;99.90
54082;DHT22;39986;50.770;0.266;2023-05-27T08:54:50;15.40;99.90
54082;DHT22;39986;50.770;0.266;2023-05-27T08:57:17;15.60;99.90
54082;DHT22;39986;50.770;0.266;2023-05-27T08:59:44;15.60;99.90
54082;DHT22;39986;50.770;0.266;2023-05-27T09:02:13;15.90;99.90
54082;DHT22;39986;50.770;0.266;2023-05-27T09:04:39;15.80;99.90
54082;DHT22;39986;50.770;0.266;2023-05-27T09:07:05;16.00;99.90
54082;DHT22;39986;50.770;0.266;2023-05-27T09:09:31;16.00;99.90
54082;DHT22;39986;50.770;0.266;2023-05-27T09:12:03;15.90;99.90
54082;DHT22;39986;50.770;0.266;2023-05-27T09:14:29;16.00;99.90
54082;DHT22;39986;50.770;0.266;2023-05-27T09:16:55;16.00;99.90
54082;DHT22;39986;50.770;0.266;2023-05-27T09:19:21;16.10;99.90
54082;DHT22;39986;50.770;0.266;2023-05-27T09:21:46;16.10;99.90
54082;DHT22;39986;50.770;0.266;2023-05-27T09:24:12;16.30;99.90
54082;DHT22;39986;50.770;0.266;2023-05-27T09:26:38;16.50;99.90
54082;DHT22;39986;50.770;0.266;2023-05-27T09:29:07;16.50;99.90
54082;DHT22;39986;50.770;0.266;2023-05-27T09:31:39;16.70;99.90
54082;DHT22;39986;50.770;0.266;2023-05-27T09:34:15;17.00;99.90
54082;DHT22;39986;50.770;0.266;2023-05-27T09:36:44;16.80;99.90
54082;DHT22;39986;50.770;0.266;2023-05-27T09:39:10;17.00;99.90
54082;DHT22;39986;50.770;0.266;2023-05-27T09:41:40;16.90;99.90
54082;DHT22;39986;50.770;0.266;2023-05-27T09:44:06;16.90;99.90
54082;DHT22;39986;50.770;0.266;2023-05-27T09:46:32;17.20;99.90
54082;DHT22;39986;50.770;0.266;2023-05-27T09:48:59;17.40;99.90
54082;DHT22;39986;50.770;0.266;2023-05-27T09:51:28;17.90;99.90
54082;DHT22;39986;50.770;0.266;2023-05-27T09:53:54;17.90;99.90
54082;DHT22;39986;50.770;0.266;2023-05-27T09:56:23;18.10;99.90
54082;DHT22;39986;50.770;0.266;2023-05-27T09:58:49;18.10;99.90
54082;DHT22;39986;50.770;0.266;2023-05-27T10:01:14;17.60;99.90
54082;DHT22;39986;50.770;0.266;2023-05-27T10:03:42;17.20;99.90
54082;DHT22;39986;50.770;0.266;2023-05-27T10:06:10;16.80;99.90
54082;DHT22;39986;50.770;0.266;2023-05-27T10:08:38;16.70;99.90
54082;DHT22;39986;50.770;0.266;2023-05-27T10:11:03;16.70;99.90
54082;DHT22;39986;50.770;0.266;2023-05-27T10:13:30;16.90;99.90
54082;DHT22;39986;50.770;0.266;2023-05-27T10:15:55;17.20;99.90
54082;DHT22;39986;50.770;0.266;2023-05-27T10:18:23;17.40;99.90
54082;DHT22;39986;50.770;0.266;2023-05-27T10:20:49;17.30;99.90
54082;DHT22;39986;50.770;0.266;2023-05-27T10:23:16;17.30;99.90
54082;DHT22;39986;50.770;0.266;2023-05-27T10:25:45;17.50;99.90
54082;DHT22;39986;50.770;0.266;2023-05-27T10:28:12;17.60;99.90
54082;DHT22;39986;50.770;0.266;2023-05-27T10:30:48;17.50;99.90
54082;DHT22;39986;50.770;0.266;2023-05-27T10:33:13;17.30;99.90
54082;DHT22;39986;50.770;0.266;2023-05-27T10:35:40;17.20;99.90
54082;DHT22;39986;50.770;0.266;2023-05-27T10:38:16;17.20;99.90
54082;DHT22;39986;50.770;0.266;2023-05-27T10:40:42;17.50;99.90
54082;DHT22;39986;50.770;0.266;2023-05-27T10:43:14;17.40;99.90
54082;DHT22;39986;50.770;0.266;2023-05-27T10:45:40;17.50;99.90
54082;DHT22;39986;50.770;0.266;2023-05-27T10:48:14;17.70;99.90
54082;DHT22;39986;50.770;0.266;2023-05-27T10:50:40;18.20;99.90
54082;DHT22;39986;50.770;0.266;2023-05-27T10:53:07;18.40;99.90
54082;DHT22;39986;50.770;0.266;2023-05-27T10:55:32;18.80;99.90
54082;DHT22;39986;50.770;0.266;2023-05-27T10:58:00;19.30;99.90
54082;DHT22;39986;50.770;0.266;2023-05-27T11:00:26;19.80;99.90
54082;DHT22;39986;50.770;0.266;2023-05-27T11:02:52;20.40;99.90
54082;DHT22;39986;50.770;0.266;2023-05-27T11:05:19;22.00;99.90
54082;DHT22;39986;50.770;0.266;2023-05-27T11:07:44;23.00;99.90
54082;DHT22;39986;50.770;0.266;2023-05-27T11:10:10;22.90;99.90
54082;DHT22;39986;50.770;0.266;2023-05-27T11:12:35;23.10;99.90
54082;DHT22;39986;50.770;0.266;2023-05-27T11:15:01;23.20;99.90
54082;DHT22;39986;50.770;0.266;2023-05-27T11:17:27;23.10;99.90
54082;DHT22;39986;50.770;0.266;2023-05-27T11:19:54;23.00;99.90
54082;DHT22;39986;50.770;0.266;2023-05-27T11:22:20;21.90;99.90
54082;DHT22;39986;50.770;0.266;2023-05-27T11:27:40;24.00;99.90
54082;DHT22;39986;50.770;0.266;2023-05-27T11:30:07;23.80;99.90
54082;DHT22;39986;50.770;0.266;2023-05-27T11:32:35;23.30;99.90
54082;DHT22;39986;50.770;0.266;2023-05-27T11:35:00;24.40;99.90
54082;DHT22;39986;50.770;0.266;2023-05-27T11:37:30;24.10;99.90
54082;DHT22;39986;50.770;0.266;2023-05-27T11:39:56;23.60;99.90
54082;DHT22;39986;50.770;0.266;2023-05-27T11:42:22;24.50;99.90
54082;DHT22;39986;50.770;0.266;2023-05-27T11:44:51;25.10;99.90
54082;DHT22;39986;50.770;0.266;2023-05-27T11:47:17;25.30;99.90
54082;DHT22;39986;50.770;0.266;2023-05-27T11:49:43;24.90;99.90
54082;DHT22;39986;50.770;0.266;2023-05-27T11:52:10;24.40;99.90
54082;DHT22;39986;50.770;0.266;2023-05-27T11:54:37;24.10;99.90
54082;DHT22;39986;50.770;0.266;2023-05-27T11:57:03;25.00;99.90
54082;DHT22;39986;50.770;0.266;2023-05-27T11:59:33;24.80;99.90
54082;DHT22;39986;50.770;0.266;2023-05-27T12:01:58;25.40;99.90
54082;DHT22;39986;50.770;0.266;2023-05-27T12:04:24;24.60;99.90
54082;DHT22;39986;50.770;0.266;2023-05-27T12:06:49;24.90;99.90
54082;DHT22;39986;50.770;0.266;2023-05-27T12:09:16;25.40;99.90
54082;DHT22;39986;50.770;0.266;2023-05-27T12:11:41;26.10;99.90
54082;DHT22;39986;50.770;0.266;2023-05-27T12:14:07;26.40;99.90
54082;DHT22;39986;50.770;0.266;2023-05-27T12:16:33;26.70;99.90
54082;DHT22;39986;50.770;0.266;2023-05-27T12:18:58;26.80;99.90
54082;DHT22;39986;50.770;0.266;2023-05-27T12:21:24;25.40;99.90
54082;DHT22;39986;50.770;0.266;2023-05-27T12:23:50;25.60;99.90
54082;DHT22;39986;50.770;0.266;2023-05-27T12:26:16;25.60;99.90
54082;DHT22;39986;50.770;0.266;2023-05-27T12:28:42;24.70;99.90
54082;DHT22;39986;50.770;0.266;2023-05-27T12:31:07;24.60;99.90
54082;DHT22;39986;50.770;0.266;2023-05-27T12:33:33;25.50;99.90
54082;DHT22;39986;50.770;0.266;2023-05-27T12:35:59;26.20;99.90
54082;DHT22;39986;50.770;0.266;2023-05-27T12:38:24;26.00;99.90
54082;DHT22;39986;50.770;0.266;2023-05-27T12:40:50;25.90;99.90
54082;DHT22;39986;50.770;0.266;2023-05-27T12:43:17;25.70;99.90
54082;DHT22;39986;50.770;0.266;2023-05-27T12:45:42;26.50;99.90
54082;DHT22;39986;50.770;0.266;2023-05-27T12:48:08;27.50;99.90
54082;DHT22;39986;50.770;0.266;2023-05-27T12:50:33;26.90;99.90
54082;DHT22;39986;50.770;0.266;2023-05-27T12:52:59;25.90;99.90
54082;DHT22;39986;50.770;0.266;2023-05-27T12:55:24;24.20;99.90
54082;DHT22;39986;50.770;0.266;2023-05-27T12:57:50;23.70;99.90
54082;DHT22;39986;50.770;0.266;2023-05-27T13:00:17;24.10;99.90
54082;DHT22;39986;50.770;0.266;2023-05-27T13:02:43;23.60;99.90
54082;DHT22;39986;50.770;0.266;2023-05-27T13:05:08;23.70;99.90
54082;DHT22;39986;50.770;0.266;2023-05-27T13:07:34;23.40;99.90
54082;DHT22;39986;50.770;0.266;2023-05-27T13:10:01;23.90;99.90
54082;DHT22;39986;50.770;0.266;2023-05-27T13:12:27;25.60;99.90
54082;DHT22;39986;50.770;0.266;2023-05-27T13:14:52;26.80;99.90
54082;DHT22;39986;50.770;0.266;2023-05-27T13:17:18;26.70;99.90
54082;DHT22;39986;50.770;0.266;2023-05-27T13:19:44;28.20;99.90
54082;DHT22;39986;50.770;0.266;2023-05-27T13:22:09;28.40;99.90
54082;DHT22;39986;50.770;0.266;2023-05-27T13:24:35;28.50;99.90
54082;DHT22;39986;50.770;0.266;2023-05-27T13:27:01;27.30;99.90
54082;DHT22;39986;50.770;0.266;2023-05-27T13:29:28;27.00;99.90
54082;DHT22;39986;50.770;0.266;2023-05-27T13:31:54;27.40;99.90
54082;DHT22;39986;50.770;0.266;2023-05-27T13:34:19;26.00;99.90
54082;DHT22;39986;50.770;0.266;2023-05-27T13:36:45;25.00;99.90
54082;DHT22;39986;50.770;0.266;2023-05-27T13:39:10;25.20;99.90
54082;DHT22;39986;50.770;0.266;2023-05-27T13:41:36;26.70;99.90
54082;DHT22;39986;50.770;0.266;2023-05-27T13:44:02;25.80;99.90
54082;DHT22;39986;50.770;0.266;2023-05-27T13:46:27;24.70;99.90
54082;DHT22;39986;50.770;0.266;2023-05-27T13:48:53;23.90;99.90
54082;DHT22;39986;50.770;0.266;2023-05-27T13:51:19;23.90;99.90
54082;DHT22;39986;50.770;0.266;2023-05-27T13:53:44;24.80;99.90
54082;DHT22;39986;50.770;0.266;2023-05-27T13:56:10;25.60;99.90
54082;DHT22;39986;50.770;0.266;2023-05-27T13:58:36;25.10;99.90
54082;DHT22;39986;50.770;0.266;2023-05-27T14:01:01;25.60;99.90
54082;DHT22;39986;50.770;0.266;2023-05-27T14:03:27;27.30;99.90
54082;DHT22;39986;50.770;0.266;2023-05-27T14:05:52;25.80;99.90
54082;DHT22;39986;50.770;0.266;2023-05-27T14:08:18;25.60;99.90
54082;DHT22;39986;50.770;0.266;2023-05-27T14:10:43;25.10;99.90
54082;DHT22;39986;50.770;0.266;2023-05-27T14:13:09;25.00;99.90
54082;DHT22;39986;50.770;0.266;2023-05-27T14:15:35;23.90;99.90
54082;DHT22;39986;50.770;0.266;2023-05-27T14:18:00;23.30;99.90
54082;DHT22;39986;50.770;0.266;2023-05-27T14:20:26;23.60;99.90
54082;DHT22;39986;50.770;0.266;2023-05-27T14:22:52;25.00;99.90
54082;DHT22;39986;50.770;0.266;2023-05-27T14:25:18;26.20;99.90
54082;DHT22;39986;50.770;0.266;2023-05-27T14:27:45;28.00;99.90
54082;DHT22;39986;50.770;0.266;2023-05-27T14:30:11;27.50;99.90
54082;DHT22;39986;50.770;0.266;2023-05-27T14:32:36;26.20;99.90
54082;DHT22;39986;50.770;0.266;2023-05-27T14:35:02;25.40;99.90
54082;DHT22;39986;50.770;0.266;2023-05-27T14:37:28;24.70;99.90
54082;DHT22;39986;50.770;0.266;2023-05-27T14:39:53;25.20;99.90
54082;DHT22;39986;50.770;0.266;2023-05-27T14:42:19;25.20;99.90
54082;DHT22;39986;50.770;0.266;2023-05-27T14:44:45;26.50;99.90
54082;DHT22;39986;50.770;0.266;2023-05-27T14:47:10;25.60;99.90
54082;DHT22;39986;50.770;0.266;2023-05-27T14:49:36;24.90;99.90
54082;DHT22;39986;50.770;0.266;2023-05-27T14:52:01;23.60;99.90
54082;DHT22;39986;50.770;0.266;2023-05-27T14:54:27;21.80;99.90
54082;DHT22;39986;50.770;0.266;2023-05-27T14:56:53;20.30;99.90
54082;DHT22;39986;50.770;0.266;2023-05-27T14:59:18;19.50;99.90
54082;DHT22;39986;50.770;0.266;2023-05-27T15:01:47;18.90;99.90
54082;DHT22;39986;50.770;0.266;2023-05-27T15:04:12;18.20;99.90
54082;DHT22;39986;50.770;0.266;2023-05-27T15:06:38;18.00;99.90
54082;DHT22;39986;50.770;0.266;2023-05-27T15:09:03;18.40;99.90
54082;DHT22;39986;50.770;0.266;2023-05-27T15:11:29;18.60;99.90
54082;DHT22;39986;50.770;0.266;2023-05-27T15:13:56;18.60;99.90
54082;DHT22;39986;50.770;0.266;2023-05-27T15:16:21;18.70;99.90
54082;DHT22;39986;50.770;0.266;2023-05-27T15:18:47;18.60;99.90
54082;DHT22;39986;50.770;0.266;2023-05-27T15:21:13;18.70;99.90
54082;DHT22;39986;50.770;0.266;2023-05-27T15:23:38;18.60;99.90
54082;DHT22;39986;50.770;0.266;2023-05-27T15:26:05;18.60;99.90
54082;DHT22;39986;50.770;0.266;2023-05-27T15:28:31;18.30;99.90